createdAt,value
2019-06-01T00:01:48.794Z,11.55
2019-06-01T00:04:17.591Z,9.33
2019-06-01T00:06:46.952Z,12.80
2019-06-01T00:09:15.764Z,13.00
2019-06-01T00:11:45.531Z,11.30
2019-06-01T00:14:14.251Z,14.30
2019-06-01T00:16:44.141Z,13.30
2019-06-01T00:19:12.935Z,12.23
2019-06-01T00:21:41.416Z,12.65
2019-06-01T00:24:10.055Z,12.53
2019-06-01T00:26:38.552Z,14.18
2019-06-01T00:29:07.189Z,12.95
2019-06-01T00:31:35.842Z,12.05
2019-06-01T00:34:04.465Z,11.60
2019-06-01T00:36:33.192Z,14.50
2019-06-01T00:39:01.821Z,14.23
2019-06-01T00:41:30.497Z,13.68
2019-06-01T00:43:59.191Z,13.22
2019-06-01T00:46:27.911Z,12.25
2019-06-01T00:48:56.475Z,13.88
2019-06-01T00:51:25.121Z,13.00
2019-06-01T00:53:53.728Z,10.43
2019-06-01T00:56:22.548Z,11.50
2019-06-01T00:58:51.945Z,15.48
2019-06-01T01:01:20.683Z,12.73
2019-06-01T01:03:50.203Z,12.10
2019-06-01T01:06:19.024Z,16.17
2019-06-01T01:08:49.000Z,14.90
2019-06-01T01:11:17.859Z,14.20
2019-06-01T01:13:47.183Z,14.00
2019-06-01T01:16:15.927Z,15.70
2019-06-01T01:18:45.622Z,17.25
2019-06-01T01:21:14.416Z,14.58
2019-06-01T01:23:43.041Z,14.25
2019-06-01T01:26:11.697Z,16.87
2019-06-01T01:28:40.318Z,16.23
2019-06-01T01:31:13.759Z,17.87
2019-06-01T01:33:39.620Z,16.23
2019-06-01T01:36:08.227Z,15.20
2019-06-01T01:38:36.831Z,14.83
2019-06-01T01:41:05.659Z,16.07
2019-06-01T01:43:34.286Z,14.80
2019-06-01T01:46:04.082Z,15.98
2019-06-01T01:48:32.735Z,19.73
2019-06-01T01:51:02.642Z,12.93
2019-06-01T01:53:31.624Z,13.93
2019-06-01T01:56:01.207Z,12.95
2019-06-01T01:58:30.023Z,17.82
2019-06-01T02:01:00.151Z,15.25
2019-06-01T02:03:29.103Z,21.27
2019-06-01T02:05:58.857Z,16.27
2019-06-01T02:08:27.900Z,16.42
2019-06-01T02:10:57.466Z,17.62
2019-06-01T02:13:26.114Z,17.98
2019-06-01T02:15:56.062Z,18.48
2019-06-01T02:18:24.923Z,16.85
2019-06-01T02:20:54.389Z,19.07
2019-06-01T02:23:23.039Z,18.95
2019-06-01T02:25:52.750Z,20.55
2019-06-01T02:28:21.567Z,20.68
2019-06-01T02:30:50.065Z,17.25
2019-06-01T02:33:18.644Z,19.67
2019-06-01T02:35:47.244Z,18.00
2019-06-01T02:38:15.839Z,18.67
2019-06-01T02:40:44.538Z,16.65
2019-06-01T02:43:13.338Z,23.45
2019-06-01T02:45:41.882Z,15.18
2019-06-01T02:48:10.685Z,15.93
2019-06-01T02:50:39.259Z,15.10
2019-06-01T02:53:07.875Z,18.62
2019-06-01T02:55:36.771Z,15.45
2019-06-01T02:58:06.713Z,15.95
2019-06-01T03:00:47.220Z,15.53
2019-06-01T03:03:16.413Z,13.35
2019-06-01T03:05:46.832Z,12.73
2019-06-01T03:08:17.017Z,15.00
2019-06-01T03:10:47.675Z,19.07
2019-06-01T03:13:19.054Z,16.23
2019-06-01T03:15:48.262Z,15.68
2019-06-01T03:18:18.677Z,13.50
2019-06-01T03:20:50.430Z,13.70
2019-06-01T03:23:22.062Z,11.45
2019-06-01T03:25:53.528Z,12.78
2019-06-01T03:28:24.831Z,13.85
2019-06-01T03:30:53.507Z,13.43
2019-06-01T03:33:22.126Z,14.70
2019-06-01T03:35:51.122Z,17.05
2019-06-01T03:38:19.911Z,13.75
2019-06-01T03:40:48.496Z,13.90
2019-06-01T03:43:17.300Z,16.20
2019-06-01T03:45:45.881Z,12.65
2019-06-01T03:48:14.746Z,12.47
2019-06-01T03:50:43.250Z,14.50
2019-06-01T03:53:12.178Z,14.25
2019-06-01T03:55:40.942Z,11.38
2019-06-01T03:58:09.556Z,12.30
2019-06-01T04:00:38.131Z,13.88
2019-06-01T04:03:07.189Z,12.63
2019-06-01T04:05:35.934Z,13.15
2019-06-01T04:08:05.595Z,11.30
2019-06-01T04:10:34.287Z,11.53
2019-06-01T04:13:03.519Z,13.18
2019-06-01T04:15:32.345Z,19.82
2019-06-01T04:18:01.924Z,13.70
2019-06-01T04:20:30.796Z,14.58
2019-06-01T04:22:59.442Z,16.37
2019-06-01T04:25:29.727Z,12.13
2019-06-01T04:27:58.354Z,18.02
2019-06-01T04:30:27.648Z,16.55
2019-06-01T04:32:56.327Z,16.70
2019-06-01T04:35:24.961Z,14.47
2019-06-01T04:37:53.674Z,16.87
2019-06-01T04:40:22.237Z,15.65
2019-06-01T04:42:50.958Z,13.53
2019-06-01T04:45:19.760Z,25.43
2019-06-01T04:47:48.405Z,13.30
2019-06-01T04:50:16.952Z,14.33
2019-06-01T04:52:45.527Z,13.70
2019-06-01T04:55:15.149Z,15.53
2019-06-01T04:57:43.819Z,17.12
2019-06-01T05:00:27.119Z,17.07
2019-06-01T05:02:44.091Z,18.05
2019-06-01T05:05:13.374Z,13.32
2019-06-01T05:07:42.440Z,16.55
2019-06-01T05:10:11.740Z,15.63
2019-06-01T05:12:40.550Z,15.30
2019-06-01T05:15:11.906Z,19.52
2019-06-01T05:17:40.847Z,16.67
2019-06-01T05:20:10.398Z,15.58
2019-06-01T05:22:39.192Z,19.02
2019-06-01T05:25:09.007Z,14.63
2019-06-01T05:27:37.850Z,15.88
2019-06-01T05:30:09.360Z,12.30
2019-06-01T05:32:38.376Z,15.63
2019-06-01T05:35:07.706Z,14.70
2019-06-01T05:37:36.569Z,17.25
2019-06-01T05:40:10.532Z,21.50
2019-06-01T05:42:39.270Z,17.60
2019-06-01T05:45:09.321Z,17.32
2019-06-01T05:47:38.102Z,19.32
2019-06-01T05:50:10.641Z,13.65
2019-06-01T05:52:39.455Z,17.35
2019-06-01T05:55:08.686Z,14.15
2019-06-01T05:57:37.300Z,14.03
2019-06-01T06:00:08.217Z,14.23
2019-06-01T06:02:37.596Z,15.35
2019-06-01T06:05:07.547Z,15.23
2019-06-01T06:07:36.873Z,13.83
2019-06-01T06:10:06.699Z,20.43
2019-06-01T06:12:35.389Z,16.50
2019-06-01T06:15:05.802Z,14.83
2019-06-01T06:17:34.374Z,13.38
2019-06-01T06:20:03.044Z,16.07
2019-06-01T06:22:31.600Z,15.98
2019-06-01T06:25:00.260Z,19.62
2019-06-01T06:27:28.887Z,15.78
2019-06-01T06:29:57.455Z,16.87
2019-06-01T06:32:26.152Z,15.98
2019-06-01T06:34:54.725Z,14.38
2019-06-01T06:37:23.888Z,12.40
2019-06-01T06:39:52.739Z,13.22
2019-06-01T06:42:22.273Z,12.90
2019-06-01T06:44:51.020Z,12.60
2019-06-01T06:47:20.841Z,13.55
2019-06-01T06:49:49.714Z,9.65
2019-06-01T06:52:19.424Z,9.20
2019-06-01T06:54:48.196Z,10.32
2019-06-01T06:57:17.914Z,7.00
2019-06-01T06:59:46.619Z,7.35
2019-06-01T07:02:15.263Z,8.38
2019-06-01T07:04:43.887Z,8.45
2019-06-01T07:07:12.540Z,10.40
2019-06-01T07:09:41.149Z,11.83
2019-06-01T07:12:09.779Z,13.53
2019-06-01T07:14:38.478Z,9.05
2019-06-01T07:17:07.276Z,9.38
2019-06-01T07:19:35.950Z,10.98
2019-06-01T07:22:04.747Z,7.78
2019-06-01T07:24:33.721Z,12.05
2019-06-01T07:27:02.338Z,7.75
2019-06-01T07:29:30.884Z,8.35
2019-06-01T07:31:59.459Z,10.48
2019-06-01T07:34:39.156Z,11.12
2019-06-01T07:36:58.303Z,10.68
2019-06-01T07:39:26.972Z,7.97
2019-06-01T07:41:55.646Z,9.60
2019-06-01T07:44:25.042Z,12.15
2019-06-01T07:46:53.687Z,8.28
2019-06-01T07:49:23.213Z,11.53
2019-06-01T07:51:52.182Z,8.05
2019-06-01T07:54:20.837Z,7.60
2019-06-01T07:56:49.518Z,8.43
2019-06-01T07:59:18.238Z,5.95
2019-06-01T08:01:46.768Z,7.22
2019-06-01T08:04:15.305Z,6.55
2019-06-01T08:06:47.064Z,6.80
2019-06-01T08:09:14.304Z,6.75
2019-06-01T08:11:42.854Z,7.45
2019-06-01T08:14:11.542Z,9.80
2019-06-01T08:16:40.215Z,7.37
2019-06-01T08:19:08.964Z,5.40
2019-06-01T08:21:37.676Z,12.68
2019-06-01T08:24:06.359Z,8.58
2019-06-01T08:26:34.962Z,7.35
2019-06-01T08:29:03.584Z,7.92
2019-06-01T08:31:33.541Z,10.72
2019-06-01T08:34:02.422Z,7.47
2019-06-01T08:36:31.674Z,4.83
2019-06-01T08:39:00.432Z,9.53
2019-06-01T08:41:29.844Z,8.75
2019-06-01T08:43:58.600Z,9.50
2019-06-01T08:46:27.689Z,8.50
2019-06-01T08:48:56.403Z,6.72
2019-06-01T08:51:26.551Z,9.25
2019-06-01T08:53:55.561Z,7.05
2019-06-01T08:56:24.302Z,9.00
2019-06-01T08:58:53.030Z,7.90
2019-06-01T09:01:21.779Z,7.00
2019-06-01T09:03:50.475Z,6.80
2019-06-01T09:06:19.045Z,9.93
2019-06-01T09:08:47.911Z,12.28
2019-06-01T09:11:16.444Z,10.32
2019-06-01T09:13:45.134Z,8.15
2019-06-01T09:16:13.816Z,8.78
2019-06-01T09:18:42.789Z,8.05
2019-06-01T09:21:11.651Z,8.78
2019-06-01T09:23:40.360Z,14.23
2019-06-01T09:26:09.213Z,12.28
2019-06-01T09:28:37.757Z,10.38
2019-06-01T09:31:06.337Z,8.33
2019-06-01T09:33:36.433Z,9.60
2019-06-01T09:36:05.665Z,8.48
2019-06-01T09:38:35.779Z,8.38
2019-06-01T09:41:04.866Z,9.63
2019-06-01T09:43:33.548Z,7.78
2019-06-01T09:46:02.242Z,6.80
2019-06-01T09:48:31.429Z,5.03
2019-06-01T09:51:00.098Z,9.40
2019-06-01T09:53:29.382Z,4.90
2019-06-01T09:55:59.008Z,5.90
2019-06-01T09:58:28.160Z,6.45
2019-06-01T10:00:57.019Z,7.58
2019-06-01T10:03:25.705Z,10.45
2019-06-01T10:06:01.893Z,6.40
2019-06-01T10:08:24.694Z,6.22
2019-06-01T10:10:53.411Z,5.35
2019-06-01T10:13:21.975Z,6.90
2019-06-01T10:15:50.570Z,7.65
2019-06-01T10:18:19.272Z,6.00
2019-06-01T10:20:48.026Z,5.80
2019-06-01T10:23:16.750Z,6.85
2019-06-01T10:25:45.573Z,6.30
2019-06-01T10:28:14.196Z,6.20
2019-06-01T10:30:42.825Z,5.75
2019-06-01T10:33:11.656Z,6.33
2019-06-01T10:35:40.256Z,5.53
2019-06-01T10:38:08.844Z,8.20
2019-06-01T10:40:37.653Z,4.92
2019-06-01T10:43:06.258Z,10.98
2019-06-01T10:45:35.759Z,5.95
2019-06-01T10:48:04.845Z,5.65
2019-06-01T10:50:34.845Z,4.50
2019-06-01T10:53:03.947Z,4.53
2019-06-01T10:55:32.626Z,4.95
2019-06-01T10:58:01.465Z,6.00
2019-06-01T11:00:39.664Z,11.40
2019-06-01T11:03:00.528Z,5.10
2019-06-01T11:05:29.080Z,8.88
2019-06-01T11:07:57.674Z,23.32
2019-06-01T11:10:26.357Z,8.13
2019-06-01T11:12:55.140Z,5.20
2019-06-01T11:15:23.907Z,3.67
2019-06-01T11:17:52.927Z,5.75
2019-06-01T11:20:21.630Z,4.05
2019-06-01T11:22:50.446Z,5.17
2019-06-01T11:25:19.149Z,6.92
2019-06-01T11:27:47.713Z,5.20
2019-06-01T11:30:16.535Z,10.50
2019-06-01T11:32:45.277Z,6.78
2019-06-01T11:35:14.806Z,7.62
2019-06-01T11:37:44.437Z,5.80
2019-06-01T11:40:13.584Z,6.12
2019-06-01T11:42:42.944Z,7.80
2019-06-01T11:45:12.291Z,6.28
2019-06-01T11:47:41.068Z,6.83
2019-06-01T11:50:10.321Z,4.75
2019-06-01T11:52:39.246Z,6.55
2019-06-01T11:55:08.982Z,4.45
2019-06-01T11:57:37.771Z,6.97
2019-06-01T12:00:11.415Z,6.42
2019-06-01T12:02:40.020Z,5.47
2019-06-01T12:05:09.744Z,5.75
2019-06-01T12:07:39.719Z,7.45
2019-06-01T12:10:09.286Z,5.17
2019-06-01T12:12:38.367Z,5.87
2019-06-01T12:15:07.832Z,4.55
2019-06-01T12:17:36.607Z,6.03
2019-06-01T12:20:08.953Z,5.78
2019-06-01T12:22:38.696Z,4.65
2019-06-01T12:25:08.385Z,2.80
2019-06-01T12:27:37.314Z,4.25
2019-06-01T12:30:09.418Z,4.87
2019-06-01T12:32:38.075Z,4.10
2019-06-01T12:35:10.109Z,4.15
2019-06-01T12:37:58.401Z,3.72
2019-06-01T12:40:09.654Z,2.92
2019-06-01T12:42:39.711Z,4.78
2019-06-01T12:45:10.443Z,4.25
2019-06-01T12:47:39.918Z,2.67
2019-06-01T12:50:09.068Z,5.65
2019-06-01T12:52:37.890Z,4.22
2019-06-01T12:55:06.705Z,2.85
2019-06-01T12:57:35.411Z,3.58
2019-06-01T13:00:05.907Z,3.35
2019-06-01T13:02:34.731Z,6.12
2019-06-01T13:05:04.732Z,3.30
2019-06-01T13:07:33.533Z,4.12
2019-06-01T13:10:02.383Z,2.92
2019-06-01T13:12:31.068Z,5.33
2019-06-01T13:14:59.718Z,2.95
2019-06-01T13:17:28.367Z,3.95
2019-06-01T13:19:56.984Z,3.95
2019-06-01T13:22:25.708Z,6.28
2019-06-01T13:24:54.378Z,3.40
2019-06-01T13:27:23.037Z,4.95
2019-06-01T13:29:52.286Z,3.92
2019-06-01T13:32:21.014Z,6.78
2019-06-01T13:34:49.691Z,3.50
2019-06-01T13:37:18.372Z,2.40
2019-06-01T13:39:53.827Z,2.62
2019-06-01T13:42:17.177Z,2.77
2019-06-01T13:44:45.707Z,3.05
2019-06-01T13:47:14.255Z,2.37
2019-06-01T13:49:44.703Z,2.08
2019-06-01T13:52:13.195Z,4.10
2019-06-01T13:54:41.871Z,3.95
2019-06-01T13:57:10.514Z,1.32
2019-06-01T13:59:39.121Z,3.50
2019-06-01T14:02:08.315Z,2.22
2019-06-01T14:04:36.909Z,2.35
2019-06-01T14:07:06.026Z,3.83
2019-06-01T14:09:34.764Z,4.00
2019-06-01T14:12:03.955Z,2.47
2019-06-01T14:14:32.516Z,3.10
2019-06-01T14:17:01.109Z,6.17
2019-06-01T14:19:29.822Z,5.12
2019-06-01T14:21:58.357Z,3.80
2019-06-01T14:24:27.024Z,5.10
2019-06-01T14:26:56.309Z,6.28
2019-06-01T14:29:25.283Z,3.42
2019-06-01T14:31:55.410Z,2.22
2019-06-01T14:34:24.063Z,2.77
2019-06-01T14:36:52.787Z,4.05
2019-06-01T14:39:21.683Z,5.53
2019-06-01T14:41:50.992Z,13.53
2019-06-01T14:44:19.690Z,5.78
2019-06-01T14:46:55.013Z,2.42
2019-06-01T14:49:18.686Z,4.25
2019-06-01T14:51:47.561Z,5.28
2019-06-01T14:54:16.371Z,4.33
2019-06-01T14:56:45.009Z,5.37
2019-06-01T14:59:13.577Z,2.72
2019-06-01T15:01:42.116Z,4.53
2019-06-01T15:04:11.137Z,3.60
2019-06-01T15:06:39.835Z,4.22
2019-06-01T15:09:17.547Z,6.00
2019-06-01T15:11:39.767Z,3.33
2019-06-01T15:14:08.814Z,4.95
2019-06-01T15:16:37.438Z,3.25
2019-06-01T15:19:06.134Z,5.12
2019-06-01T15:21:34.890Z,5.08
2019-06-01T15:24:03.685Z,5.65
2019-06-01T15:26:32.331Z,4.10
2019-06-01T15:29:00.872Z,4.47
2019-06-01T15:31:29.406Z,9.53
2019-06-01T15:33:57.977Z,5.80
2019-06-01T15:36:26.616Z,4.92
2019-06-01T15:38:55.609Z,4.22
2019-06-01T15:41:24.238Z,4.72
2019-06-01T15:43:52.944Z,7.80
2019-06-01T15:46:21.537Z,2.98
2019-06-01T15:48:51.554Z,2.75
2019-06-01T15:51:20.443Z,6.17
2019-06-01T15:53:49.005Z,5.70
2019-06-01T15:56:17.703Z,8.33
2019-06-01T15:58:52.894Z,7.45
2019-06-01T16:01:16.656Z,5.42
2019-06-01T16:03:45.313Z,3.05
2019-06-01T16:06:14.424Z,3.62
2019-06-01T16:08:43.080Z,5.40
2019-06-01T16:11:11.893Z,3.05
2019-06-01T16:13:40.566Z,3.85
2019-06-01T16:16:09.224Z,3.20
2019-06-01T16:18:37.930Z,7.70
2019-06-01T16:21:06.579Z,4.00
2019-06-01T16:23:49.562Z,8.33
2019-06-01T16:26:15.459Z,4.22
2019-06-01T16:28:35.744Z,3.92
2019-06-01T16:31:04.844Z,5.30
2019-06-01T16:33:33.539Z,4.97
2019-06-01T16:36:03.394Z,4.55
2019-06-01T16:38:32.606Z,5.83
2019-06-01T16:41:01.411Z,7.03
2019-06-01T16:43:30.203Z,4.67
2019-06-01T16:45:59.667Z,6.12
2019-06-01T16:48:28.576Z,2.62
2019-06-01T16:50:57.626Z,4.25
2019-06-01T16:53:26.357Z,4.25
2019-06-01T16:55:55.833Z,5.95
2019-06-01T16:58:24.638Z,3.85
2019-06-01T17:00:53.390Z,9.38
2019-06-01T17:03:22.137Z,3.65
2019-06-01T17:05:50.830Z,4.50
2019-06-01T17:08:19.845Z,4.83
2019-06-01T17:10:48.775Z,3.62
2019-06-01T17:13:17.505Z,4.70
2019-06-01T17:15:46.121Z,4.75
2019-06-01T17:18:14.793Z,4.47
2019-06-01T17:20:53.541Z,4.62
2019-06-01T17:23:27.363Z,5.08
2019-06-01T17:25:52.652Z,6.87
2019-06-01T17:28:21.653Z,5.17
2019-06-01T17:30:50.429Z,2.72
2019-06-01T17:33:19.318Z,5.22
2019-06-01T17:35:47.988Z,3.35
2019-06-01T17:38:16.700Z,4.60
2019-06-01T17:40:45.452Z,3.67
2019-06-01T17:43:14.470Z,5.50
2019-06-01T17:45:43.313Z,6.22
2019-06-01T17:48:24.740Z,3.58
2019-06-01T17:50:42.458Z,5.10
2019-06-01T17:53:11.133Z,3.60
2019-06-01T17:55:40.175Z,3.65
2019-06-01T17:58:10.085Z,4.08
2019-06-01T18:00:40.119Z,4.35
2019-06-01T18:03:10.112Z,2.45
2019-06-01T18:05:39.024Z,2.90
2019-06-01T18:08:08.110Z,3.70
2019-06-01T18:10:52.459Z,5.53
2019-06-01T18:13:08.623Z,9.95
2019-06-01T18:15:37.769Z,3.08
2019-06-01T18:18:08.568Z,4.28
2019-06-01T18:20:38.066Z,7.12
2019-06-01T18:23:08.302Z,3.90
2019-06-01T18:25:37.086Z,3.90
2019-06-01T18:28:07.028Z,4.53
2019-06-01T18:30:36.018Z,7.47
2019-06-01T18:33:05.184Z,4.05
2019-06-01T18:35:33.932Z,3.25
2019-06-01T18:38:03.713Z,9.70
2019-06-01T18:40:33.990Z,6.08
2019-06-01T18:43:06.114Z,4.53
2019-06-01T18:45:35.906Z,3.55
2019-06-01T18:48:06.115Z,3.35
2019-06-01T18:50:35.702Z,5.37
2019-06-01T18:53:06.057Z,5.42
2019-06-01T18:55:35.784Z,5.00
2019-06-01T18:58:06.323Z,4.15
2019-06-01T19:00:39.213Z,3.58
2019-06-01T19:03:06.997Z,6.33
2019-06-01T19:05:36.048Z,3.15
2019-06-01T19:08:05.180Z,4.45
2019-06-01T19:10:34.264Z,9.28
2019-06-01T19:13:03.095Z,5.87
2019-06-01T19:15:31.997Z,3.80
2019-06-01T19:18:00.692Z,3.60
2019-06-01T19:20:33.044Z,3.77
2019-06-01T19:23:00.169Z,2.67
2019-06-01T19:25:29.176Z,3.47
2019-06-01T19:27:57.854Z,4.65
2019-06-01T19:30:38.205Z,4.33
2019-06-01T19:33:10.979Z,2.87
2019-06-01T19:35:39.125Z,4.03
2019-06-01T19:38:08.955Z,7.55
2019-06-01T19:40:39.753Z,3.83
2019-06-01T19:43:09.396Z,2.75
2019-06-01T19:45:38.279Z,3.98
2019-06-01T19:48:08.328Z,2.92
2019-06-01T19:50:37.087Z,2.98
2019-06-01T19:53:06.768Z,3.10
2019-06-01T19:55:35.459Z,3.30
2019-06-01T19:58:04.279Z,4.03
2019-06-01T20:00:33.105Z,4.60
2019-06-01T20:03:02.024Z,3.37
2019-06-01T20:05:30.958Z,3.27
2019-06-01T20:07:59.658Z,3.05
2019-06-01T20:10:28.337Z,4.53
2019-06-01T20:12:57.000Z,4.30
2019-06-01T20:15:25.721Z,2.72
2019-06-01T20:17:54.397Z,4.28
2019-06-01T20:20:23.206Z,3.12
2019-06-01T20:22:52.119Z,5.35
2019-06-01T20:25:21.761Z,3.55
2019-06-01T20:27:50.555Z,5.53
2019-06-01T20:30:19.930Z,5.45
2019-06-01T20:32:48.790Z,4.12
2019-06-01T20:35:18.074Z,2.87
2019-06-01T20:37:46.922Z,6.00
2019-06-01T20:40:16.269Z,3.65
2019-06-01T20:42:45.001Z,2.62
2019-06-01T20:45:14.554Z,6.15
2019-06-01T20:47:43.410Z,3.67
2019-06-01T20:50:12.685Z,6.42
2019-06-01T20:52:41.425Z,4.50
2019-06-01T20:55:11.324Z,4.42
2019-06-01T20:57:39.864Z,4.00
2019-06-01T21:00:10.194Z,5.22
2019-06-01T21:02:38.863Z,3.90
2019-06-01T21:05:08.568Z,5.42
2019-06-01T21:07:37.331Z,8.65
2019-06-01T21:10:10.725Z,7.65
2019-06-01T21:12:45.387Z,8.03
2019-06-01T21:15:11.488Z,8.43
2019-06-01T21:17:40.209Z,4.85
2019-06-01T21:20:10.114Z,3.75
2019-06-01T21:22:39.328Z,5.70
2019-06-01T21:25:08.316Z,6.28
2019-06-01T21:27:37.054Z,4.78
2019-06-01T21:30:07.671Z,5.95
2019-06-01T21:32:36.387Z,6.62
2019-06-01T21:35:06.341Z,4.28
2019-06-01T21:37:35.003Z,6.53
2019-06-01T21:40:05.349Z,4.80
2019-06-01T21:42:38.297Z,6.40
2019-06-01T21:45:07.391Z,5.00
2019-06-01T21:47:36.189Z,5.12
2019-06-01T21:50:08.286Z,5.95
2019-06-01T21:52:37.072Z,4.22
2019-06-01T21:55:08.656Z,3.35
2019-06-01T21:57:37.322Z,5.35
2019-06-01T22:00:16.421Z,4.78
2019-06-01T22:02:45.233Z,5.22
2019-06-01T22:05:13.917Z,4.95
2019-06-01T22:07:42.864Z,4.05
2019-06-01T22:10:11.773Z,7.03
2019-06-01T22:12:40.431Z,5.08
2019-06-01T22:15:09.139Z,5.28
2019-06-01T22:17:37.853Z,3.22
2019-06-01T22:20:06.974Z,5.15
2019-06-01T22:22:35.625Z,4.95
2019-06-01T22:25:05.956Z,3.67
2019-06-01T22:27:34.572Z,6.15
2019-06-01T22:30:03.560Z,5.30
2019-06-01T22:32:32.220Z,5.40
2019-06-01T22:35:00.975Z,4.87
2019-06-01T22:37:29.711Z,4.15
2019-06-01T22:39:58.422Z,7.62
2019-06-01T22:42:28.380Z,6.45
2019-06-01T22:44:57.136Z,5.10
2019-06-01T22:47:26.644Z,4.25
2019-06-01T22:49:55.484Z,3.92
2019-06-01T22:52:24.976Z,4.17
2019-06-01T22:54:53.895Z,4.40
2019-06-01T22:57:22.549Z,5.45
2019-06-01T22:59:51.239Z,4.92
2019-06-01T23:02:19.934Z,6.33
2019-06-01T23:04:48.888Z,7.87
2019-06-01T23:07:17.367Z,7.17
2019-06-01T23:09:46.337Z,6.03
2019-06-01T23:12:14.954Z,6.42
2019-06-01T23:14:43.676Z,6.60
2019-06-01T23:17:12.223Z,6.25
2019-06-01T23:19:40.788Z,8.53
2019-06-01T23:22:09.563Z,6.72
2019-06-01T23:24:38.306Z,11.00
2019-06-01T23:27:06.920Z,8.73
2019-06-01T23:29:35.506Z,6.33
2019-06-01T23:32:04.258Z,15.20
2019-06-01T23:34:32.900Z,8.18
2019-06-01T23:37:01.523Z,6.92
2019-06-01T23:39:30.760Z,10.72
2019-06-01T23:41:59.522Z,8.55
2019-06-01T23:44:31.675Z,6.50
2019-06-01T23:46:58.223Z,6.97
2019-06-01T23:49:27.193Z,8.70
2019-06-01T23:51:55.927Z,10.23
2019-06-01T23:54:25.527Z,7.67
2019-06-01T23:56:54.314Z,10.85
2019-06-01T23:59:24.059Z,7.20
